createdAt,value
2019-06-20T00:00:15.872Z,21.109619
2019-06-20T00:01:25.436Z,21.109619
2019-06-20T00:02:34.945Z,21.139832
2019-06-20T00:03:44.434Z,21.180115
2019-06-20T00:04:53.938Z,21.200256
2019-06-20T00:06:03.448Z,21.25061
2019-06-20T00:07:12.973Z,21.290894
2019-06-20T00:08:22.481Z,21.361389
2019-06-20T00:09:32.009Z,21.401672
2019-06-20T00:10:41.528Z,21.452026
2019-06-20T00:11:52.032Z,21.462097
2019-06-20T00:13:01.552Z,21.431885
2019-06-20T00:14:11.065Z,21.431885
2019-06-20T00:15:20.576Z,21.421814
2019-06-20T00:16:30.083Z,21.391602
2019-06-20T00:17:40.618Z,21.37146
2019-06-20T00:18:50.133Z,21.361389
2019-06-20T00:19:59.626Z,21.331177
2019-06-20T00:21:09.142Z,21.300964
2019-06-20T00:22:18.667Z,21.300964
2019-06-20T00:23:28.180Z,21.270752
2019-06-20T00:24:37.696Z,21.24054
2019-06-20T00:25:47.203Z,21.220398
2019-06-20T00:26:56.712Z,21.200256
2019-06-20T00:28:06.233Z,21.139832
2019-06-20T00:29:15.760Z,21.109619
2019-06-20T00:30:25.249Z,21.029053
2019-06-20T00:31:34.759Z,20.98877
2019-06-20T00:32:44.298Z,20.968628
2019-06-20T00:33:53.805Z,20.928345
2019-06-20T00:35:03.335Z,20.877991
2019-06-20T00:36:12.848Z,20.847778
2019-06-20T00:37:22.370Z,20.837708
2019-06-20T00:38:31.888Z,20.817566
2019-06-20T00:39:41.389Z,20.797424
2019-06-20T00:40:50.914Z,20.767212
2019-06-20T00:42:00.410Z,20.767212
2019-06-20T00:43:17.248Z,20.74707
2019-06-20T00:44:19.408Z,20.716858
2019-06-20T00:45:28.914Z,20.686646
2019-06-20T00:46:38.438Z,20.666504
2019-06-20T00:47:48.050Z,20.646362
2019-06-20T00:48:57.494Z,20.626221
2019-06-20T00:50:07.004Z,20.646362
2019-06-20T00:51:16.532Z,20.61615
2019-06-20T00:52:26.052Z,20.596008
2019-06-20T00:53:35.556Z,20.575867
2019-06-20T00:54:45.067Z,20.545654
2019-06-20T00:55:54.576Z,20.515442
2019-06-20T00:57:04.088Z,20.515442
2019-06-20T00:58:13.608Z,20.505371
2019-06-20T00:59:23.148Z,20.4953
2019-06-20T01:00:32.678Z,20.475159
2019-06-20T01:01:42.182Z,20.465088
2019-06-20T01:02:51.705Z,20.404663
2019-06-20T01:04:01.209Z,20.414734
2019-06-20T01:05:10.721Z,20.404663
2019-06-20T01:06:20.232Z,20.394592
2019-06-20T01:07:29.764Z,20.36438
2019-06-20T01:08:39.275Z,20.36438
2019-06-20T01:09:48.791Z,20.324097
2019-06-20T01:10:58.303Z,20.293884
2019-06-20T01:12:07.852Z,20.263672
2019-06-20T01:13:32.443Z,20.24353
2019-06-20T01:14:27.856Z,20.223389
2019-06-20T01:15:37.362Z,20.213318
2019-06-20T01:16:46.873Z,20.223389
2019-06-20T01:17:56.412Z,20.213318
2019-06-20T01:19:05.900Z,20.193176
2019-06-20T01:20:15.412Z,20.183105
2019-06-20T01:21:24.932Z,20.213318
2019-06-20T01:22:34.455Z,20.24353
2019-06-20T01:23:43.971Z,20.263672
2019-06-20T01:24:53.470Z,20.263672
2019-06-20T01:26:02.986Z,20.263672
2019-06-20T01:27:12.494Z,20.293884
2019-06-20T01:28:22.014Z,20.314026
2019-06-20T01:29:31.534Z,20.374451
2019-06-20T01:30:41.043Z,20.404663
2019-06-20T01:31:50.556Z,20.414734
2019-06-20T01:33:00.083Z,20.414734
2019-06-20T01:34:09.592Z,20.414734
2019-06-20T01:35:19.097Z,20.434875
2019-06-20T01:36:28.610Z,20.434875
2019-06-20T01:37:38.124Z,20.434875
2019-06-20T01:38:47.633Z,20.414734
2019-06-20T01:39:57.145Z,20.414734
2019-06-20T01:41:06.657Z,20.404663
2019-06-20T01:42:16.159Z,20.36438
2019-06-20T01:43:25.679Z,20.36438
2019-06-20T01:44:36.174Z,20.36438
2019-06-20T01:45:45.687Z,20.344238
2019-06-20T01:46:55.200Z,20.324097
2019-06-20T01:48:04.721Z,20.314026
2019-06-20T01:49:14.233Z,20.293884
2019-06-20T01:50:23.737Z,20.293884
2019-06-20T01:51:33.257Z,20.283813
2019-06-20T01:52:42.798Z,20.283813
2019-06-20T01:53:52.327Z,20.263672
2019-06-20T01:55:01.843Z,20.293884
2019-06-20T01:56:11.342Z,20.283813
2019-06-20T01:57:20.854Z,20.253601
2019-06-20T01:58:30.399Z,20.223389
2019-06-20T01:59:39.907Z,20.183105
2019-06-20T02:00:49.416Z,20.132751
2019-06-20T02:01:58.935Z,20.092468
2019-06-20T02:03:08.452Z,20.062256
2019-06-20T02:04:17.951Z,20.032043
2019-06-20T02:05:27.460Z,20.001831
2019-06-20T02:06:36.970Z,19.951477
2019-06-20T02:07:46.478Z,19.921265
2019-06-20T02:08:56.025Z,19.911194
2019-06-20T02:10:05.536Z,19.941406
2019-06-20T02:11:15.041Z,20.021973
2019-06-20T02:12:24.552Z,20.042114
2019-06-20T02:13:34.117Z,20.062256
2019-06-20T02:14:43.597Z,20.092468
2019-06-20T02:15:53.106Z,20.062256
2019-06-20T02:17:02.628Z,19.921265
2019-06-20T02:18:12.151Z,19.699707
2019-06-20T02:19:21.667Z,19.478149
2019-06-20T02:20:31.174Z,19.296875
2019-06-20T02:21:40.686Z,19.115601
2019-06-20T02:22:50.193Z,18.934326
2019-06-20T02:23:59.722Z,18.753052
2019-06-20T02:25:09.234Z,18.682556
2019-06-20T02:26:18.746Z,18.581848
2019-06-20T02:27:28.252Z,18.491211
2019-06-20T02:28:37.773Z,18.370361
2019-06-20T02:29:47.288Z,18.289795
2019-06-20T02:30:56.805Z,18.219299
2019-06-20T02:32:06.329Z,18.128662
2019-06-20T02:33:15.850Z,18.068237
2019-06-20T02:34:25.340Z,18.09845
2019-06-20T02:35:34.872Z,18.038025
2019-06-20T02:36:44.375Z,17.967529
2019-06-20T02:37:53.878Z,17.886963
2019-06-20T02:39:03.413Z,17.85675
2019-06-20T02:40:12.909Z,17.84668
2019-06-20T02:41:22.422Z,17.84668
2019-06-20T02:42:31.931Z,17.816467
2019-06-20T02:43:41.455Z,17.776184
2019-06-20T02:44:50.967Z,17.715759
2019-06-20T02:46:00.478Z,17.665405
2019-06-20T02:47:09.997Z,17.635193
2019-06-20T02:48:19.516Z,17.59491
2019-06-20T02:49:29.024Z,17.574768
2019-06-20T02:50:38.530Z,17.564697
2019-06-20T02:51:48.037Z,17.564697
2019-06-20T02:52:57.554Z,17.564697
2019-06-20T02:54:07.102Z,17.524414
2019-06-20T02:55:16.592Z,17.514343
2019-06-20T02:56:26.099Z,17.514343
2019-06-20T02:57:35.605Z,17.524414
2019-06-20T02:58:45.126Z,17.564697
2019-06-20T02:59:54.677Z,17.574768
2019-06-20T03:01:04.144Z,17.564697
2019-06-20T03:02:13.648Z,17.564697
2019-06-20T03:03:23.167Z,17.59491
2019-06-20T03:04:32.698Z,17.59491
2019-06-20T03:05:42.199Z,17.625122
2019-06-20T03:06:51.705Z,17.735901
2019-06-20T03:08:01.218Z,17.786255
2019-06-20T03:09:10.740Z,17.796326
2019-06-20T03:10:20.248Z,17.84668
2019-06-20T03:11:29.761Z,17.826538
2019-06-20T03:12:39.283Z,17.84668
2019-06-20T03:13:48.809Z,17.826538
2019-06-20T03:14:58.316Z,17.84668
2019-06-20T03:16:07.828Z,17.826538
2019-06-20T03:17:17.319Z,17.826538
2019-06-20T03:18:26.842Z,17.816467
2019-06-20T03:19:36.369Z,17.826538
2019-06-20T03:20:45.878Z,17.826538
2019-06-20T03:21:55.382Z,17.85675
2019-06-20T03:23:04.896Z,17.886963
2019-06-20T03:24:14.422Z,17.897034
2019-06-20T03:25:23.937Z,17.897034
2019-06-20T03:26:33.452Z,17.937317
2019-06-20T03:27:42.980Z,17.897034
2019-06-20T03:28:52.515Z,17.947388
2019-06-20T03:30:02.067Z,17.9776
2019-06-20T03:31:11.531Z,18.007812
2019-06-20T03:32:21.038Z,18.078308
2019-06-20T03:33:30.551Z,18.108521
2019-06-20T03:34:40.075Z,18.128662
2019-06-20T03:35:49.589Z,18.128662
2019-06-20T03:36:59.129Z,18.128662
2019-06-20T03:38:08.638Z,18.148804
2019-06-20T03:39:18.170Z,18.148804
2019-06-20T03:40:27.689Z,18.179016
2019-06-20T03:41:37.197Z,18.189087
2019-06-20T03:42:46.708Z,18.189087
2019-06-20T03:43:58.988Z,18.189087
2019-06-20T03:45:05.728Z,18.179016
2019-06-20T03:46:15.237Z,18.148804
2019-06-20T03:47:24.745Z,18.128662
2019-06-20T03:48:34.248Z,18.108521
2019-06-20T03:49:43.770Z,18.09845
2019-06-20T03:50:53.289Z,18.078308
2019-06-20T03:52:02.807Z,18.078308
2019-06-20T03:53:12.335Z,18.048096
2019-06-20T03:54:21.850Z,18.027954
2019-06-20T03:55:31.369Z,17.9776
2019-06-20T03:56:40.880Z,17.947388
2019-06-20T03:57:50.389Z,17.917175
2019-06-20T03:59:00.906Z,17.866821
2019-06-20T04:00:10.408Z,17.796326
2019-06-20T04:01:19.931Z,17.786255
2019-06-20T04:02:29.444Z,17.735901
2019-06-20T04:03:38.952Z,17.695618
2019-06-20T04:04:48.482Z,17.645264
2019-06-20T04:05:57.992Z,17.59491
2019-06-20T04:07:07.505Z,17.574768
2019-06-20T04:08:17.005Z,17.524414
2019-06-20T04:09:26.521Z,17.564697
2019-06-20T04:10:36.038Z,17.59491
2019-06-20T04:11:45.546Z,17.60498
2019-06-20T04:12:55.059Z,17.665405
2019-06-20T04:14:04.589Z,17.665405
2019-06-20T04:15:18.847Z,17.695618
2019-06-20T04:16:23.582Z,17.735901
2019-06-20T04:17:33.087Z,17.735901
2019-06-20T04:18:42.586Z,17.735901
2019-06-20T04:19:52.117Z,17.705688
2019-06-20T04:21:01.627Z,17.705688
2019-06-20T04:22:11.156Z,17.705688
2019-06-20T04:23:20.665Z,17.695618
2019-06-20T04:24:30.196Z,17.715759
2019-06-20T04:25:39.704Z,17.756042
2019-06-20T04:26:49.219Z,17.756042
2019-06-20T04:27:58.736Z,17.796326
2019-06-20T04:29:08.252Z,17.816467
2019-06-20T04:30:17.763Z,17.84668
2019-06-20T04:31:27.278Z,17.84668
2019-06-20T04:32:36.790Z,17.866821
2019-06-20T04:33:46.301Z,17.85675
2019-06-20T04:34:55.832Z,17.886963
2019-06-20T04:36:05.335Z,17.947388
2019-06-20T04:37:14.850Z,17.9776
2019-06-20T04:38:24.360Z,18.007812
2019-06-20T04:39:33.882Z,18.027954
2019-06-20T04:40:43.390Z,18.027954
2019-06-20T04:41:52.906Z,18.038025
2019-06-20T04:43:02.418Z,18.068237
2019-06-20T04:44:12.003Z,18.09845
2019-06-20T04:45:34.102Z,18.108521
2019-06-20T04:46:31.924Z,18.148804
2019-06-20T04:47:41.431Z,18.189087
2019-06-20T04:48:50.939Z,18.219299
2019-06-20T04:50:00.464Z,18.259583
2019-06-20T04:51:09.976Z,18.259583
2019-06-20T04:52:19.486Z,18.309937
2019-06-20T04:53:29.000Z,18.330078
2019-06-20T04:54:38.517Z,18.340149
2019-06-20T04:55:48.031Z,18.370361
2019-06-20T04:56:57.547Z,18.35022
2019-06-20T04:58:07.054Z,18.35022
2019-06-20T04:59:16.594Z,18.35022
2019-06-20T05:00:26.112Z,18.340149
2019-06-20T05:01:35.632Z,18.330078
2019-06-20T05:02:45.155Z,18.35022
2019-06-20T05:03:54.678Z,18.330078
2019-06-20T05:05:04.219Z,18.370361
2019-06-20T05:06:13.731Z,18.35022
2019-06-20T05:07:23.239Z,18.340149
2019-06-20T05:08:32.749Z,18.370361
2019-06-20T05:09:42.276Z,18.370361
2019-06-20T05:10:51.789Z,18.380432
2019-06-20T05:12:01.289Z,18.430786
2019-06-20T05:13:10.798Z,18.471069
2019-06-20T05:14:20.314Z,18.491211
2019-06-20T05:15:29.843Z,18.491211
2019-06-20T05:16:40.351Z,18.521423
2019-06-20T05:17:49.849Z,18.501282
2019-06-20T05:18:59.362Z,18.491211
2019-06-20T05:20:08.903Z,18.491211
2019-06-20T05:21:21.550Z,18.491211
2019-06-20T05:22:27.898Z,18.501282
2019-06-20T05:23:37.406Z,18.521423
2019-06-20T05:24:46.948Z,18.551636
2019-06-20T05:25:56.455Z,18.551636
2019-06-20T05:27:05.967Z,18.591919
2019-06-20T05:28:15.483Z,18.652344
2019-06-20T05:29:24.984Z,18.682556
2019-06-20T05:30:34.523Z,18.73291
2019-06-20T05:31:44.033Z,18.773193
2019-06-20T05:32:53.546Z,18.833618
2019-06-20T05:34:03.059Z,18.843689
2019-06-20T05:35:12.581Z,18.894043
2019-06-20T05:36:22.099Z,18.904114
2019-06-20T05:37:31.589Z,18.924255
2019-06-20T05:38:41.112Z,18.924255
2019-06-20T05:39:50.636Z,18.924255
2019-06-20T05:41:00.162Z,18.924255
2019-06-20T05:42:09.722Z,18.924255
2019-06-20T05:43:19.192Z,18.934326
2019-06-20T05:44:28.728Z,18.964539
2019-06-20T05:45:38.236Z,18.98468
2019-06-20T05:46:48.716Z,19.004822
2019-06-20T05:47:59.215Z,19.075317
2019-06-20T05:49:08.710Z,19.135742
2019-06-20T05:50:18.345Z,19.186096
2019-06-20T05:51:27.748Z,19.256592
2019-06-20T05:52:38.246Z,19.286804
2019-06-20T05:53:47.757Z,19.327087
2019-06-20T05:54:57.724Z,19.337158
2019-06-20T05:56:06.801Z,19.387512
2019-06-20T05:57:16.306Z,19.407654
2019-06-20T05:58:25.824Z,19.387512
2019-06-20T05:59:35.330Z,19.447937
2019-06-20T06:00:44.942Z,19.48822
2019-06-20T06:01:56.329Z,19.578857
2019-06-20T06:03:06.926Z,19.639282
2019-06-20T06:04:14.356Z,19.699707
2019-06-20T06:05:23.872Z,19.760132
2019-06-20T06:06:33.385Z,19.840698
2019-06-20T06:07:42.898Z,19.921265
2019-06-20T06:08:52.406Z,20.001831
2019-06-20T06:10:03.960Z,20.072327
2019-06-20T06:11:11.421Z,20.102539
2019-06-20T06:12:20.938Z,20.132751
2019-06-20T06:13:30.470Z,20.142822
2019-06-20T06:14:39.977Z,20.132751
2019-06-20T06:15:49.500Z,20.072327
2019-06-20T06:16:59.014Z,20.072327
2019-06-20T06:18:08.517Z,20.092468
2019-06-20T06:19:18.025Z,20.132751
2019-06-20T06:20:27.566Z,20.213318
2019-06-20T06:21:37.068Z,20.283813
2019-06-20T06:22:46.577Z,20.324097
2019-06-20T06:23:56.084Z,20.374451
2019-06-20T06:25:05.617Z,20.394592
2019-06-20T06:26:15.122Z,20.394592
2019-06-20T06:27:24.623Z,20.283813
2019-06-20T06:28:34.133Z,20.263672
2019-06-20T06:29:43.640Z,20.253601
2019-06-20T06:30:53.188Z,20.263672
2019-06-20T06:32:02.697Z,20.253601
2019-06-20T06:33:12.204Z,20.223389
2019-06-20T06:34:22.127Z,20.223389
2019-06-20T06:35:31.255Z,20.223389
2019-06-20T06:36:40.742Z,20.213318
2019-06-20T06:37:50.259Z,20.24353
2019-06-20T06:38:59.765Z,20.283813
2019-06-20T06:40:09.308Z,20.324097
2019-06-20T06:41:18.820Z,20.394592
2019-06-20T06:42:28.329Z,20.444946
2019-06-20T06:43:41.833Z,20.515442
2019-06-20T06:44:47.367Z,20.575867
2019-06-20T06:45:56.904Z,20.666504
2019-06-20T06:47:06.400Z,20.767212
2019-06-20T06:48:15.909Z,20.817566
2019-06-20T06:49:25.413Z,20.847778
2019-06-20T06:50:34.942Z,20.928345
2019-06-20T06:51:44.452Z,21.018982
2019-06-20T06:52:53.962Z,21.139832
2019-06-20T06:54:03.493Z,21.270752
2019-06-20T06:55:12.996Z,21.25061
2019-06-20T06:56:22.517Z,21.290894
2019-06-20T06:57:32.018Z,21.300964
2019-06-20T06:58:41.534Z,21.321106
2019-06-20T06:59:51.045Z,21.300964
2019-06-20T07:01:00.559Z,21.300964
2019-06-20T07:02:11.065Z,21.321106
2019-06-20T07:03:20.574Z,21.331177
2019-06-20T07:04:30.096Z,21.462097
2019-06-20T07:05:39.673Z,21.603088
2019-06-20T07:06:49.180Z,21.723938
2019-06-20T07:07:58.695Z,21.834717
2019-06-20T07:09:08.207Z,21.99585
2019-06-20T07:10:17.743Z,22.106628
2019-06-20T07:11:27.238Z,21.99585
2019-06-20T07:12:36.743Z,21.99585
2019-06-20T07:13:46.293Z,22.136841
2019-06-20T07:14:55.803Z,22.177124
2019-06-20T07:16:05.367Z,22.25769
2019-06-20T07:17:14.920Z,22.25769
2019-06-20T07:18:24.424Z,22.106628
2019-06-20T07:19:33.983Z,22.12677
2019-06-20T07:20:43.559Z,22.12677
2019-06-20T07:21:53.071Z,22.348328
2019-06-20T07:23:02.628Z,22.620239
2019-06-20T07:24:12.138Z,22.801514
2019-06-20T07:25:21.668Z,22.982788
2019-06-20T07:26:31.179Z,23.083496
2019-06-20T07:27:40.693Z,23.093567
2019-06-20T07:28:51.533Z,23.204346
2019-06-20T07:29:59.833Z,23.305054
2019-06-20T07:31:09.367Z,23.435974
2019-06-20T07:32:18.960Z,23.587036
2019-06-20T07:33:28.563Z,23.677673
2019-06-20T07:34:38.083Z,23.738098
2019-06-20T07:35:47.619Z,23.808594
2019-06-20T07:36:57.141Z,23.607178
2019-06-20T07:38:06.816Z,23.536682
2019-06-20T07:39:16.273Z,23.536682
2019-06-20T07:40:25.801Z,23.456116
2019-06-20T07:41:35.313Z,23.395691
2019-06-20T07:42:44.826Z,23.214417
2019-06-20T07:43:54.337Z,22.831726
2019-06-20T07:45:03.861Z,22.912292
2019-06-20T07:46:13.389Z,23.13385
2019-06-20T07:47:22.912Z,23.466187
2019-06-20T07:48:32.422Z,23.808594
2019-06-20T07:49:41.934Z,24.130859
2019-06-20T07:50:51.457Z,24.281921
2019-06-20T07:52:00.959Z,24.171143
2019-06-20T07:53:10.476Z,24.382629
2019-06-20T07:54:19.986Z,24.684753
2019-06-20T07:55:29.520Z,24.845886
2019-06-20T07:56:39.065Z,24.845886
2019-06-20T07:57:48.584Z,25.007019
2019-06-20T07:58:58.107Z,25.248718
2019-06-20T08:00:07.619Z,25.359497
2019-06-20T08:01:17.187Z,25.440063
2019-06-20T08:02:26.720Z,25.460205
2019-06-20T08:03:36.233Z,25.550842
2019-06-20T08:04:45.741Z,25.701904
2019-06-20T08:05:55.263Z,25.832825
2019-06-20T08:07:04.786Z,26.004028
2019-06-20T08:08:14.312Z,26.205444
2019-06-20T08:09:23.806Z,26.205444
2019-06-20T08:10:34.297Z,26.15509
2019-06-20T08:11:43.833Z,26.215515
2019-06-20T08:12:53.349Z,26.225586
2019-06-20T08:14:02.869Z,26.27594
2019-06-20T08:15:15.264Z,26.185303
2019-06-20T08:16:21.882Z,26.175232
2019-06-20T08:17:35.048Z,26.094666
2019-06-20T08:18:40.948Z,26.215515
2019-06-20T08:19:50.443Z,26.517639
2019-06-20T08:20:59.971Z,26.678772
2019-06-20T08:22:09.481Z,26.90033
2019-06-20T08:23:18.995Z,26.990967
2019-06-20T08:24:28.501Z,27.001038
2019-06-20T08:25:38.013Z,27.142029
2019-06-20T08:26:47.552Z,27.514648
2019-06-20T08:27:59.368Z,27.816772
2019-06-20T08:29:19.939Z,27.927551
2019-06-20T08:30:18.025Z,27.625427
2019-06-20T08:31:27.582Z,27.645569
2019-06-20T08:32:37.094Z,27.705994
2019-06-20T08:33:46.619Z,27.826843
2019-06-20T08:34:58.786Z,27.857056
2019-06-20T08:36:07.610Z,28.098755
2019-06-20T08:37:17.118Z,28.320312
2019-06-20T08:38:26.627Z,28.390808
2019-06-20T08:39:36.129Z,28.189392
2019-06-20T08:40:45.678Z,27.957764
2019-06-20T08:41:55.434Z,27.796631
2019-06-20T08:43:06.093Z,27.645569
2019-06-20T08:44:14.161Z,27.424011
2019-06-20T08:45:23.669Z,27.272949
2019-06-20T08:46:33.194Z,27.172241
2019-06-20T08:47:42.752Z,26.930542
2019-06-20T08:48:52.225Z,26.739197
2019-06-20T08:50:03.837Z,26.65863
2019-06-20T08:51:14.538Z,26.477356
2019-06-20T08:52:21.717Z,26.366577
2019-06-20T08:53:31.222Z,26.215515
2019-06-20T08:54:40.744Z,26.064453
2019-06-20T08:55:50.255Z,26.02417
2019-06-20T08:57:00.805Z,25.90332
2019-06-20T08:58:09.279Z,25.812683
2019-06-20T08:59:24.114Z,25.782471
2019-06-20T09:00:28.298Z,25.65155
2019-06-20T09:01:37.828Z,25.581055
2019-06-20T09:02:47.337Z,25.591125
2019-06-20T09:03:58.300Z,25.581055
2019-06-20T09:05:07.342Z,25.540771
2019-06-20T09:06:16.868Z,25.601196
2019-06-20T09:07:26.374Z,25.661621
2019-06-20T09:08:35.884Z,25.842896
2019-06-20T09:09:45.428Z,25.963745
2019-06-20T09:10:55.690Z,26.064453
2019-06-20T09:12:05.080Z,26.185303
2019-06-20T09:13:14.249Z,26.215515
2019-06-20T09:14:23.765Z,26.215515
2019-06-20T09:15:33.287Z,26.185303
2019-06-20T09:16:42.828Z,26.27594
2019-06-20T09:17:55.116Z,26.215515
2019-06-20T09:19:03.931Z,26.27594
2019-06-20T09:20:13.449Z,26.215515
2019-06-20T09:21:23.029Z,26.14502
2019-06-20T09:22:32.576Z,26.104736
2019-06-20T09:23:42.104Z,26.094666
2019-06-20T09:24:53.616Z,25.963745
2019-06-20T09:26:02.137Z,25.90332
2019-06-20T09:27:11.752Z,25.933533
2019-06-20T09:28:21.253Z,25.722046
2019-06-20T09:29:41.296Z,25.65155
2019-06-20T09:30:41.344Z,25.65155
2019-06-20T09:31:52.887Z,25.470276
2019-06-20T09:33:01.369Z,25.530701
2019-06-20T09:34:10.997Z,25.65155
2019-06-20T09:35:20.544Z,26.054382
2019-06-20T09:36:30.193Z,26.437073
2019-06-20T09:37:39.730Z,26.77948
2019-06-20T09:38:50.598Z,27.252808
2019-06-20T09:39:59.830Z,27.776489
2019-06-20T09:41:09.489Z,28.139038
2019-06-20T09:42:19.031Z,28.451233
2019-06-20T09:43:28.550Z,28.622437
2019-06-20T09:44:38.065Z,28.964844
2019-06-20T09:45:47.648Z,29.236755
2019-06-20T09:46:58.188Z,29.156189
2019-06-20T09:48:06.734Z,29.065552
2019-06-20T09:49:16.262Z,29.307251
2019-06-20T09:50:25.835Z,29.04541
2019-06-20T09:51:35.384Z,28.521729
2019-06-20T09:52:44.917Z,27.998047
2019-06-20T09:53:56.332Z,27.947693
2019-06-20T09:55:04.943Z,27.947693
2019-06-20T09:56:15.069Z,27.262878
2019-06-20T09:57:24.721Z,27.293091
2019-06-20T09:58:34.297Z,27.524719
2019-06-20T09:59:56.041Z,28.068542
2019-06-20T10:00:55.091Z,28.048401
2019-06-20T10:02:03.922Z,28.390808
2019-06-20T10:03:13.447Z,28.703003
2019-06-20T10:04:22.976Z,28.964844
2019-06-20T10:05:32.486Z,29.226685
2019-06-20T10:06:42.010Z,29.609375
2019-06-20T10:07:52.248Z,29.861145
2019-06-20T10:09:01.019Z,29.790649
2019-06-20T10:10:10.571Z,29.720154
2019-06-20T10:11:20.095Z,29.649658
2019-06-20T10:12:29.627Z,29.377747
2019-06-20T10:13:39.155Z,29.266968
2019-06-20T10:14:49.547Z,29.377747
2019-06-20T10:15:58.189Z,29.347534
2019-06-20T10:17:07.773Z,29.347534
2019-06-20T10:18:17.296Z,29.438171
2019-06-20T10:19:26.813Z,29.559021
2019-06-20T10:20:38.769Z,29.468384
2019-06-20T10:21:47.843Z,29.508667
2019-06-20T10:22:57.418Z,29.559021
2019-06-20T10:24:07.431Z,29.750366
2019-06-20T10:25:16.979Z,29.871216
2019-06-20T10:26:26.541Z,30.022278
2019-06-20T10:27:37.110Z,30.122986
2019-06-20T10:28:49.114Z,30.193481
2019-06-20T10:30:10.569Z,30.274048
2019-06-20T10:31:08.596Z,30.183411
2019-06-20T10:32:18.135Z,29.971924
2019-06-20T10:33:27.657Z,29.871216
2019-06-20T10:34:37.206Z,29.760437
2019-06-20T10:35:48.428Z,29.629517
2019-06-20T10:36:58.235Z,29.609375
2019-06-20T10:38:07.833Z,29.649658
2019-06-20T10:39:17.383Z,29.609375
2019-06-20T10:40:26.889Z,29.488525
2019-06-20T10:41:36.490Z,29.317322
2019-06-20T10:42:48.086Z,29.256897
2019-06-20T10:43:57.598Z,29.266968
2019-06-20T10:45:07.122Z,29.115906
2019-06-20T10:46:16.740Z,29.216614
2019-06-20T10:47:32.565Z,29.438171
2019-06-20T10:48:36.934Z,29.780579
2019-06-20T10:49:47.704Z,30.022278
2019-06-20T10:50:56.038Z,29.841003
2019-06-20T10:52:06.579Z,30.122986
2019-06-20T10:53:16.122Z,30.354614
2019-06-20T10:54:25.629Z,30.354614
2019-06-20T10:55:35.186Z,30.354614
2019-06-20T10:56:47.084Z,29.951782
2019-06-20T10:57:55.621Z,29.750366
2019-06-20T10:59:05.141Z,29.649658
2019-06-20T11:00:29.627Z,29.609375
2019-06-20T11:01:25.326Z,29.468384
2019-06-20T11:02:34.853Z,29.387817
2019-06-20T11:03:46.055Z,29.236755
2019-06-20T11:04:54.900Z,29.015198
2019-06-20T11:06:04.416Z,28.843994
2019-06-20T11:07:14.019Z,28.743286
2019-06-20T11:08:23.538Z,28.54187
2019-06-20T11:09:33.114Z,28.048401
2019-06-20T11:10:43.533Z,27.746277
2019-06-20T11:11:52.198Z,27.202454
2019-06-20T11:13:01.733Z,27.021179
2019-06-20T11:14:11.242Z,27.021179
2019-06-20T11:15:20.781Z,27.142029
2019-06-20T11:16:30.327Z,27.222595
2019-06-20T11:17:41.918Z,27.424011
2019-06-20T11:18:50.527Z,27.746277
2019-06-20T11:20:00.103Z,28.03833
2019-06-20T11:21:09.581Z,28.330383
2019-06-20T11:22:19.139Z,28.41095
2019-06-20T11:23:28.673Z,28.66272
2019-06-20T11:24:39.307Z,28.864136
2019-06-20T11:25:48.839Z,28.934631
2019-06-20T11:26:58.489Z,29.16626
2019-06-20T11:28:08.013Z,29.236755
2019-06-20T11:29:17.518Z,29.307251
2019-06-20T11:30:27.034Z,29.438171
2019-06-20T11:31:40.872Z,29.679871
2019-06-20T11:32:48.795Z,29.901428
2019-06-20T11:33:57.726Z,29.971924
2019-06-20T11:35:07.242Z,30.233765
2019-06-20T11:36:16.871Z,30.374756
2019-06-20T11:37:26.402Z,30.455322
2019-06-20T11:38:38.994Z,30.566101
2019-06-20T11:39:47.493Z,29.911499
2019-06-20T11:40:57.179Z,30.062561
2019-06-20T11:42:06.787Z,30.163269
2019-06-20T11:43:16.332Z,30.42511
2019-06-20T11:44:25.859Z,30.586243
2019-06-20T11:45:37.308Z,30.848083
2019-06-20T11:46:47.076Z,31.05957
2019-06-20T11:47:55.448Z,31.401978
2019-06-20T11:49:05.011Z,31.462402
2019-06-20T11:50:14.548Z,31.623535
2019-06-20T11:51:24.081Z,31.885376
2019-06-20T11:52:38.478Z,32.207642
2019-06-20T11:53:45.091Z,32.479553
2019-06-20T11:54:54.610Z,32.680969
2019-06-20T11:56:04.176Z,32.872314
2019-06-20T11:57:13.828Z,32.973022
2019-06-20T11:58:23.608Z,33.154297
2019-06-20T11:59:32.893Z,33.275146
2019-06-20T12:00:42.431Z,33.526917
2019-06-20T12:01:52.946Z,33.738403
2019-06-20T12:03:02.489Z,33.980103
2019-06-20T12:04:12.025Z,33.44635
2019-06-20T12:05:21.542Z,33.19458
2019-06-20T12:06:31.119Z,33.265076
2019-06-20T12:07:43.514Z,33.31543
2019-06-20T12:08:51.229Z,33.456421
2019-06-20T12:10:00.750Z,33.637695
2019-06-20T12:11:10.277Z,33.829041
2019-06-20T12:12:19.914Z,33.94989
2019-06-20T12:13:29.518Z,34.211731
2019-06-20T12:14:41.333Z,34.483643
2019-06-20T12:15:49.591Z,34.725342
2019-06-20T12:16:59.145Z,34.856262
2019-06-20T12:18:08.679Z,34.795837
2019-06-20T12:19:18.197Z,34.513855
2019-06-20T12:20:27.849Z,34.544067
2019-06-20T12:21:37.966Z,34.664917
2019-06-20T12:22:50.434Z,34.967041
2019-06-20T12:23:57.388Z,35.289307
2019-06-20T12:25:07.902Z,35.641785
2019-06-20T12:26:17.423Z,35.923767
2019-06-20T12:27:26.956Z,36.165466
2019-06-20T12:28:38.958Z,36.004333
2019-06-20T12:29:46.482Z,35.802917
2019-06-20T12:30:55.516Z,35.732422
2019-06-20T12:32:06.069Z,35.520935
2019-06-20T12:33:15.601Z,35.450439
2019-06-20T12:34:25.126Z,35.047607
2019-06-20T12:35:34.654Z,34.624634
2019-06-20T12:36:46.500Z,33.959961
2019-06-20T12:37:54.653Z,33.426208
2019-06-20T12:39:04.158Z,32.781677
2019-06-20T12:40:13.669Z,32.268066
2019-06-20T12:41:23.201Z,31.925659
2019-06-20T12:42:32.743Z,31.583252
2019-06-20T12:43:44.424Z,31.220703
2019-06-20T12:44:52.850Z,31.069641
2019-06-20T12:46:02.373Z,30.918579
2019-06-20T12:47:11.930Z,30.697021
2019-06-20T12:48:21.479Z,30.475464
2019-06-20T12:49:30.987Z,30.284119
2019-06-20T12:50:42.943Z,30.082703
2019-06-20T12:51:51.057Z,29.689941
2019-06-20T12:53:00.627Z,29.407959
2019-06-20T12:54:10.188Z,29.125977
2019-06-20T12:55:19.729Z,28.894348
2019-06-20T12:56:29.266Z,28.783569
2019-06-20T12:57:40.354Z,28.692932
2019-06-20T12:58:49.322Z,28.441162
2019-06-20T12:59:58.886Z,28.008118
2019-06-20T13:01:08.388Z,27.726135
2019-06-20T13:02:17.934Z,27.554932
2019-06-20T13:03:27.477Z,27.424011
2019-06-20T13:04:38.212Z,27.212524
2019-06-20T13:05:47.063Z,27.03125
2019-06-20T13:06:56.139Z,26.930542
2019-06-20T13:08:05.691Z,26.769409
2019-06-20T13:09:15.228Z,26.65863
2019-06-20T13:10:24.756Z,26.64856
2019-06-20T13:11:34.301Z,26.27594
2019-06-20T13:12:44.285Z,25.913391
2019-06-20T13:13:53.374Z,25.842896
2019-06-20T13:15:02.878Z,25.752258
2019-06-20T13:16:12.414Z,25.7724